Time,TemperatureF,DewpointF,PressureIn,WindDirection,WindDirectionDegrees,WindSpeedMPH,WindSpeedGustMPH,Humidity,HourlyPrecipIn,Conditions,Clouds,dailyrainin,SolarRadiationWatts/m^2,SoftwareType,DateUTC
2013-11-05 00:00:00,40.1,38.2,30.12,NNE,24,0.0,0.0,93,0.00,,,0.00,0,Wunderground v.1.15,2013-11-05 06:00:00,
2013-11-05 00:10:00,40.8,38.7,30.12,NNE,24,0.0,0.0,92,0.00,,,0.00,0,Wunderground v.1.15,2013-11-05 06:10:00,
2013-11-05 00:20:00,41.5,39.3,30.12,NNE,24,0.0,0.0,92,0.00,,,0.00,0,Wunderground v.1.15,2013-11-05 06:20:00,
2013-11-05 00:30:00,41.5,39.1,30.12,NNE,24,0.0,0.0,91,0.00,,,0.00,0,Wunderground v.1.15,2013-11-05 06:30:00,
2013-11-05 00:40:00,41.6,39.2,30.12,NNE,24,0.0,0.0,91,0.00,,,0.00,0,Wunderground v.1.15,2013-11-05 06:40:00,
2013-11-05 00:50:00,41.8,39.1,30.13,NNE,24,0.0,0.0,90,0.00,,,0.00,0,Wunderground v.1.15,2013-11-05 06:50:00,
2013-11-05 01:00:00,42.2,39.2,30.13,NNE,24,0.0,0.0,89,0.00,,,0.00,0,Wunderground v.1.15,2013-11-05 07:00:00,
2013-11-05 01:10:00,42.3,39.3,30.13,NNE,24,0.0,0.0,89,0.00,,,0.00,0,Wunderground v.1.15,2013-11-05 07:10:00,
2013-11-05 01:20:00,42.3,39.3,30.13,NNE,24,0.0,0.0,89,0.00,,,0.00,0,Wunderground v.1.15,2013-11-05 07:20:00,
2013-11-05 01:30:00,42.3,39.3,30.13,NNE,24,0.0,0.0,89,0.00,,,0.00,0,Wunderground v.1.15,2013-11-05 07:30:00,
2013-11-05 01:40:00,42.6,39.3,30.12,NNE,24,0.0,0.0,88,0.00,,,0.00,0,Wunderground v.1.15,2013-11-05 07:40:00,
2013-11-05 01:50:00,42.5,39.2,30.12,NNE,24,0.0,0.0,88,0.00,,,0.00,0,Wunderground v.1.15,2013-11-05 07:50:00,
2013-11-05 02:00:00,42.3,38.7,30.12,NNE,24,0.0,0.0,87,0.00,,,0.00,0,Wunderground v.1.15,2013-11-05 08:00:00,
2013-11-05 02:10:00,42.3,37.8,30.12,NNE,24,0.0,0.0,84,0.00,,,0.00,0,Wunderground v.1.15,2013-11-05 08:10:00,
2013-11-05 02:20:00,42.5,38.0,30.12,NNE,24,0.0,0.0,84,0.00,,,0.00,0,Wunderground v.1.15,2013-11-05 08:20:00,
2013-11-05 02:30:00,42.5,38.0,30.12,NNE,24,0.0,0.0,84,0.00,,,0.00,0,Wunderground v.1.15,2013-11-05 08:30:00,
2013-11-05 02:40:00,42.6,38.1,30.12,NNE,24,0.0,0.0,84,0.00,,,0.00,0,Wunderground v.1.15,2013-11-05 08:40:00,
2013-11-05 02:50:00,42.6,37.8,30.11,NNE,24,0.0,0.0,83,0.00,,,0.00,0,Wunderground v.1.15,2013-11-05 08:50:00,
2013-11-05 03:00:00,42.6,37.8,30.11,NNE,24,0.0,0.0,83,0.00,,,0.00,0,Wunderground v.1.15,2013-11-05 09:00:00,
2013-11-05 03:10:00,42.6,37.5,30.11,NNE,24,0.0,0.0,82,0.00,,,0.00,0,Wunderground v.1.15,2013-11-05 09:10:00,
2013-11-05 03:20:00,42.6,37.5,30.11,NNE,24,0.0,0.0,82,0.00,,,0.00,0,Wunderground v.1.15,2013-11-05 09:20:00,
2013-11-05 03:30:00,42.6,37.2,30.11,NNE,24,0.0,0.0,81,0.00,,,0.00,0,Wunderground v.1.15,2013-11-05 09:30:00,
2013-11-05 03:40:00,42.6,36.9,30.11,NNE,24,0.0,0.0,80,0.00,,,0.00,0,Wunderground v.1.15,2013-11-05 09:40:00,
2013-11-05 03:50:00,42.6,36.9,30.11,NNE,24,0.0,0.0,80,0.00,,,0.00,0,Wunderground v.1.15,2013-11-05 09:50:00,
2013-11-05 04:00:00,42.8,37.1,30.11,NNE,24,0.0,0.0,80,0.00,,,0.00,0,Wunderground v.1.15,2013-11-05 10:00:00,
2013-11-05 04:10:00,42.9,37.2,30.11,NNE,24,0.0,0.0,80,0.00,,,0.00,0,Wunderground v.1.15,2013-11-05 10:10:00,
2013-11-05 04:20:00,43.1,37.3,30.11,NNE,24,0.0,0.0,80,0.00,,,0.00,0,Wunderground v.1.15,2013-11-05 10:20:00,
2013-11-05 04:30:00,43.3,37.2,30.11,NNE,24,0.0,0.0,79,0.00,,,0.00,0,Wunderground v.1.15,2013-11-05 10:30:00,
2013-11-05 04:40:00,43.5,37.1,30.11,NNE,24,0.0,0.0,78,0.00,,,0.00,0,Wunderground v.1.15,2013-11-05 10:40:00,
2013-11-05 04:50:00,43.8,37.1,30.11,NNE,24,0.0,0.0,77,0.00,,,0.00,0,Wunderground v.1.15,2013-11-05 10:50:00,
2013-11-05 05:00:00,44.1,37.0,30.11,NNE,24,0.0,0.0,76,0.00,,,0.00,0,Wunderground v.1.15,2013-11-05 11:00:00,
2013-11-05 05:10:00,44.2,36.8,30.11,NE,41,0.0,3.0,75,0.00,,,0.00,0,Wunderground v.1.15,2013-11-05 11:10:00,
2013-11-05 05:20:00,44.5,36.7,30.10,NE,53,3.0,8.0,74,0.00,,,0.00,0,Wunderground v.1.15,2013-11-05 11:20:00,
2013-11-05 05:30:00,44.6,36.5,30.10,NE,53,4.0,4.0,73,0.00,,,0.00,0,Wunderground v.1.15,2013-11-05 11:30:00,
2013-11-05 05:40:00,44.9,36.4,30.10,NE,56,1.0,1.0,72,0.00,,,0.00,0,Wunderground v.1.15,2013-11-05 11:40:00,
2013-11-05 05:50:00,45.1,36.6,30.10,ENE,60,4.0,4.0,72,0.00,,,0.00,0,Wunderground v.1.15,2013-11-05 11:50:00,
2013-11-05 06:00:00,45.1,36.6,30.10,ENE,67,7.0,7.0,72,0.00,,,0.00,0,Wunderground v.1.15,2013-11-05 12:00:00,
2013-11-05 06:10:00,45.2,36.7,30.08,ENE,61,6.0,6.0,72,0.00,,,0.00,0,Wunderground v.1.15,2013-11-05 12:10:00,
2013-11-05 06:20:00,45.4,36.9,30.08,NE,56,6.0,9.0,72,0.00,,,0.00,0,Wunderground v.1.15,2013-11-05 12:20:00,
2013-11-05 06:30:00,45.5,37.0,30.08,ENE,57,4.0,7.0,72,0.00,,,0.00,0,Wunderground v.1.15,2013-11-05 12:30:00,
2013-11-05 06:40:00,45.8,37.3,30.08,ENE,69,5.0,5.0,72,0.00,,,0.00,0,Wunderground v.1.15,2013-11-05 12:40:00,
2013-11-05 06:50:00,46.1,37.9,30.07,ENE,74,6.0,6.0,73,0.00,,,0.00,0,Wunderground v.1.15,2013-11-05 12:50:00,
2013-11-05 07:00:00,46.4,38.2,30.07,East,80,6.0,8.0,73,0.00,,,0.00,0,Wunderground v.1.15,2013-11-05 13:00:00,
2013-11-05 07:10:00,46.5,38.7,30.07,NE,56,7.0,7.0,74,0.00,,,0.00,0,Wunderground v.1.15,2013-11-05 13:10:00,
2013-11-05 07:20:00,46.5,38.7,30.08,ENE,65,3.0,3.0,74,0.00,,,0.00,0,Wunderground v.1.15,2013-11-05 13:20:00,
2013-11-05 07:30:00,46.5,39.0,30.08,East,80,6.0,6.0,75,0.00,,,0.00,5,Wunderground v.1.15,2013-11-05 13:30:00,
2013-11-05 07:40:00,46.4,38.9,30.07,East,80,7.0,9.0,75,0.00,,,0.00,7,Wunderground v.1.15,2013-11-05 13:40:00,
2013-11-05 07:50:00,46.4,39.2,30.07,ENE,75,9.0,9.0,76,0.00,,,0.00,9,Wunderground v.1.15,2013-11-05 13:50:00,
2013-11-05 08:00:00,46.4,39.2,30.07,ENE,72,7.0,7.0,76,0.00,,,0.00,11,Wunderground v.1.15,2013-11-05 14:00:00,
2013-11-05 08:10:00,46.4,39.6,30.06,East,82,7.0,7.0,77,0.00,,,0.00,9,Wunderground v.1.15,2013-11-05 14:10:00,
2013-11-05 08:20:00,46.4,39.6,30.06,ENE,74,4.0,4.0,77,0.00,,,0.00,9,Wunderground v.1.15,2013-11-05 14:20:00,
2013-11-05 08:30:00,46.5,40.0,30.06,East,80,4.0,4.0,78,0.00,,,0.00,18,Wunderground v.1.15,2013-11-05 14:30:00,
2013-11-05 08:40:00,46.7,40.5,30.06,East,79,3.0,5.0,79,0.00,,,0.00,18,Wunderground v.1.15,2013-11-05 14:40:00,
2013-11-05 08:50:00,46.7,40.9,30.05,East,88,3.0,7.0,80,0.00,,,0.00,16,Wunderground v.1.15,2013-11-05 14:50:00,
2013-11-05 09:00:00,46.5,41.3,30.05,ESE,103,5.0,7.0,82,0.00,,,0.00,18,Wunderground v.1.15,2013-11-05 15:00:00,
2013-11-05 09:10:00,46.5,41.6,30.04,East,85,4.0,7.0,83,0.00,,,0.00,19,Wunderground v.1.15,2013-11-05 15:10:00,
2013-11-05 09:20:00,46.4,41.8,30.03,East,90,6.0,6.0,84,0.00,,,0.00,12,Wunderground v.1.15,2013-11-05 15:20:00,
2013-11-05 09:30:00,46.2,41.9,30.03,ENE,69,3.0,5.0,85,0.00,,,0.00,23,Wunderground v.1.15,2013-11-05 15:30:00,
2013-11-05 09:40:00,46.2,42.2,30.02,East,94,4.0,5.0,86,0.00,,,0.00,23,Wunderground v.1.15,2013-11-05 15:40:00,
2013-11-05 09:50:00,46.2,42.8,30.02,ENE,73,4.0,4.0,88,0.00,,,0.00,40,Wunderground v.1.15,2013-11-05 15:50:00,
2013-11-05 10:00:00,46.2,43.1,30.02,East,96,4.0,4.0,89,0.00,,,0.00,33,Wunderground v.1.15,2013-11-05 16:00:00,
2013-11-05 10:10:00,46.1,43.0,30.00,ESE,113,1.0,1.0,89,0.00,,,0.00,21,Wunderground v.1.15,2013-11-05 16:10:00,
2013-11-05 10:20:00,46.2,43.4,30.00,East,83,1.0,1.0,90,0.00,,,0.00,14,Wunderground v.1.15,2013-11-05 16:20:00,
2013-11-05 10:30:00,46.2,43.7,30.00,East,83,0.0,0.0,91,0.00,,,0.01,11,Wunderground v.1.15,2013-11-05 16:30:00,
2013-11-05 10:40:00,46.4,43.9,29.99,East,82,0.0,0.0,91,0.00,,,0.01,9,Wunderground v.1.15,2013-11-05 16:40:00,
2013-11-05 10:50:00,46.5,44.0,30.00,East,82,0.0,0.0,91,0.29,,,0.06,16,Wunderground v.1.15,2013-11-05 16:50:00,
2013-11-05 11:00:00,46.7,44.5,30.00,East,80,0.0,0.0,92,0.25,,,0.11,28,Wunderground v.1.15,2013-11-05 17:00:00,
2013-11-05 11:10:00,46.8,44.6,29.99,NE,52,0.0,0.0,92,0.35,,,0.16,30,Wunderground v.1.15,2013-11-05 17:10:00,
2013-11-05 11:20:00,47.0,44.8,29.97,NE,52,0.0,0.0,92,0.32,,,0.20,23,Wunderground v.1.15,2013-11-05 17:20:00,
2013-11-05 11:30:00,47.0,45.1,29.97,NE,52,0.0,0.0,93,0.35,,,0.25,32,Wunderground v.1.15,2013-11-05 17:30:00,
2013-11-05 11:40:00,47.0,45.1,29.96,NE,52,0.0,0.0,93,0.38,,,0.29,12,Wunderground v.1.15,2013-11-05 17:40:00,
2013-11-05 11:50:00,46.8,44.9,29.97,NE,40,0.0,0.0,93,0.45,,,0.37,30,Wunderground v.1.15,2013-11-05 17:50:00,
2013-11-05 12:00:00,46.8,45.2,29.97,NNE,22,0.0,0.0,94,0.15,,,0.40,16,Wunderground v.1.15,2013-11-05 18:00:00,
2013-11-05 12:10:00,46.8,45.2,29.94,NNE,31,2.0,2.0,94,0.18,,,0.43,53,Wunderground v.1.15,2013-11-05 18:10:00,
2013-11-05 12:19:00,47.0,45.4,29.92,NE,52,1.0,1.0,94,0.08,,,0.44,28,Wunderground v.1.15,2013-11-05 18:19:00,
2013-11-05 12:30:00,47.0,45.4,29.92,NNE,31,0.0,0.0,94,0.04,,,0.45,18,Wunderground v.1.15,2013-11-05 18:30:00,
2013-11-05 12:40:00,47.0,45.4,29.92,ENE,59,3.0,7.0,94,0.27,,,0.48,33,Wunderground v.1.15,2013-11-05 18:40:00,
2013-11-05 12:50:00,47.0,45.4,29.89,NE,41,5.0,5.0,94,0.19,,,0.51,21,Wunderground v.1.15,2013-11-05 18:50:00,
2013-11-05 13:00:00,46.5,44.9,29.89,NE,37,5.0,5.0,94,0.13,,,0.53,19,Wunderground v.1.15,2013-11-05 19:00:00,
2013-11-05 13:10:00,46.2,44.6,29.89,NNE,26,3.0,3.0,94,0.29,,,0.58,12,Wunderground v.1.15,2013-11-05 19:10:00,
2013-11-05 13:20:00,45.7,44.1,29.90,NNE,23,2.0,2.0,94,0.24,,,0.62,21,Wunderground v.1.15,2013-11-05 19:20:00,
2013-11-05 13:30:00,45.2,43.6,29.90,NE,44,3.0,3.0,94,0.18,,,0.66,28,Wunderground v.1.15,2013-11-05 19:30:00,
2013-11-05 13:40:00,44.8,43.2,29.88,NE,38,4.0,6.0,94,0.08,,,0.67,26,Wunderground v.1.15,2013-11-05 19:40:00,
2013-11-05 13:50:00,44.8,43.2,29.87,NE,49,3.0,5.0,94,0.08,,,0.68,18,Wunderground v.1.15,2013-11-05 19:50:00,
2013-11-05 14:00:00,44.9,43.3,29.87,NE,49,5.0,5.0,94,0.06,,,0.69,40,Wunderground v.1.15,2013-11-05 20:00:00,
2013-11-05 14:10:00,45.4,43.8,29.86,NE,44,3.0,4.0,94,0.07,,,0.70,69,Wunderground v.1.15,2013-11-05 20:10:00,
2013-11-05 14:20:00,45.4,43.8,29.84,NE,53,6.0,6.0,94,0.05,,,0.71,67,Wunderground v.1.15,2013-11-05 20:20:00,
2013-11-05 14:30:00,45.5,43.9,29.84,NE,52,5.0,5.0,94,0.04,,,0.71,25,Wunderground v.1.15,2013-11-05 20:30:00,
2013-11-05 14:40:00,45.8,44.4,29.83,ENE,59,4.0,4.0,95,0.00,,,0.71,30,Wunderground v.1.15,2013-11-05 20:40:00,
2013-11-05 14:50:00,45.8,44.2,29.83,NE,53,5.0,7.0,94,0.00,,,0.71,40,Wunderground v.1.15,2013-11-05 20:50:00,
2013-11-05 15:00:00,45.7,44.1,29.83,ENE,59,6.0,7.0,94,0.00,,,0.71,23,Wunderground v.1.15,2013-11-05 21:00:00,
2013-11-05 15:10:00,45.7,44.1,29.83,NE,51,6.0,6.0,94,0.00,,,0.72,25,Wunderground v.1.15,2013-11-05 21:10:00,
2013-11-05 15:20:00,45.5,43.9,29.83,NE,40,8.0,13.0,94,0.05,,,0.73,30,Wunderground v.1.15,2013-11-05 21:20:00,
2013-11-05 15:30:00,45.5,43.9,29.83,NE,37,6.0,6.0,94,0.04,,,0.74,14,Wunderground v.1.15,2013-11-05 21:30:00,
2013-11-05 15:40:00,45.2,43.6,29.82,ENE,65,5.0,8.0,94,0.04,,,0.74,18,Wunderground v.1.15,2013-11-05 21:40:00,
2013-11-05 15:50:00,45.1,43.5,29.81,NE,48,7.0,7.0,94,0.00,,,0.75,12,Wunderground v.1.15,2013-11-05 21:50:00,
2013-11-05 16:00:00,45.1,43.5,29.81,ENE,57,5.0,6.0,94,0.00,,,0.75,11,Wunderground v.1.15,2013-11-05 22:00:00,
2013-11-05 16:09:00,44.9,43.3,29.81,NE,44,3.0,9.0,94,0.00,,,0.75,11,Wunderground v.1.15,2013-11-05 22:09:00,
2013-11-05 16:20:00,44.8,43.2,29.81,NE,37,6.0,6.0,94,0.00,,,0.76,7,Wunderground v.1.15,2013-11-05 22:20:00,
2013-11-05 16:30:00,44.5,43.2,29.81,NE,48,6.0,6.0,95,0.00,,,0.76,5,Wunderground v.1.15,2013-11-05 22:30:00,
2013-11-05 16:40:00,44.3,42.7,29.81,NNE,23,3.0,4.0,94,0.04,,,0.77,0,Wunderground v.1.15,2013-11-05 22:40:00,
2013-11-05 16:50:00,43.8,42.2,29.83,NW,320,3.0,3.0,94,0.00,,,0.77,0,Wunderground v.1.15,2013-11-05 22:50:00,
2013-11-05 17:00:00,43.1,41.5,29.83,NNW,327,2.0,2.0,94,0.14,,,0.79,0,Wunderground v.1.15,2013-11-05 23:00:00,
2013-11-05 17:10:00,42.8,41.2,29.84,NNW,344,2.0,2.0,94,0.08,,,0.80,0,Wunderground v.1.15,2013-11-05 23:10:00,
2013-11-05 17:20:00,42.3,41.0,29.84,North,355,1.0,1.0,95,0.06,,,0.81,0,Wunderground v.1.15,2013-11-05 23:20:00,
2013-11-05 17:30:00,42.1,40.8,29.84,North,5,2.0,3.0,95,0.08,,,0.82,0,Wunderground v.1.15,2013-11-05 23:30:00,
2013-11-05 17:40:00,41.8,40.2,29.84,NNW,340,1.0,1.0,94,0.05,,,0.83,0,Wunderground v.1.15,2013-11-05 23:40:00,
2013-11-05 17:50:00,41.3,39.7,29.85,North,9,3.0,8.0,94,0.10,,,0.85,0,Wunderground v.1.15,2013-11-05 23:50:00,
2013-11-05 18:00:00,40.9,39.3,29.85,NNE,13,5.0,10.0,94,0.09,,,0.86,0,Wunderground v.1.15,2013-11-06 00:00:00,
2013-11-05 18:10:00,40.8,39.2,29.86,NNE,13,5.0,5.0,94,0.07,,,0.87,0,Wunderground v.1.15,2013-11-06 00:10:00,
2013-11-05 18:20:00,40.6,39.0,29.86,NNE,13,5.0,5.0,94,0.00,,,0.87,0,Wunderground v.1.15,2013-11-06 00:20:00,
2013-11-05 18:30:00,40.5,38.6,29.86,North,5,3.0,3.0,93,0.00,,,0.87,0,Wunderground v.1.15,2013-11-06 00:30:00,
2013-11-05 18:40:00,40.2,38.3,29.86,North,360,3.0,3.0,93,0.00,,,0.88,0,Wunderground v.1.15,2013-11-06 00:40:00,
2013-11-05 18:50:00,39.9,38.0,29.88,NNW,344,3.0,3.0,93,0.00,,,0.88,0,Wunderground v.1.15,2013-11-06 00:50:00,
2013-11-05 18:59:00,39.8,37.9,29.88,NNW,344,3.0,3.0,93,0.00,,,0.88,0,Wunderground v.1.15,2013-11-06 00:59:00,
2013-11-05 19:10:00,39.8,37.9,29.89,NNW,331,1.0,1.0,93,0.00,,,0.89,0,Wunderground v.1.15,2013-11-06 01:10:00,
2013-11-05 19:20:00,39.2,37.3,29.89,NNW,338,3.0,3.0,93,0.07,,,0.90,0,Wunderground v.1.15,2013-11-06 01:20:00,
2013-11-05 19:30:00,39.1,37.2,29.89,NNW,331,3.0,3.0,93,0.05,,,0.90,0,Wunderground v.1.15,2013-11-06 01:30:00,
2013-11-05 19:40:00,38.9,37.0,29.90,NW,321,4.0,4.0,93,0.00,,,0.90,0,Wunderground v.1.15,2013-11-06 01:40:00,
2013-11-05 19:50:00,38.6,36.5,29.91,NW,313,4.0,4.0,92,0.00,,,0.90,0,Wunderground v.1.15,2013-11-06 01:50:00,
2013-11-05 20:00:00,38.5,36.4,29.91,NNW,336,3.0,3.0,92,0.00,,,0.90,0,Wunderground v.1.15,2013-11-06 02:00:00,
2013-11-05 20:10:00,38.3,36.2,29.91,NW,308,3.0,3.0,92,0.00,,,0.90,0,Wunderground v.1.15,2013-11-06 02:10:00,
2013-11-05 20:20:00,38.0,35.9,29.93,NW,317,3.0,12.0,92,0.00,,,0.90,0,Wunderground v.1.15,2013-11-06 02:20:00,
2013-11-05 20:30:00,37.8,35.7,29.93,NNW,333,4.0,4.0,92,0.00,,,0.90,0,Wunderground v.1.15,2013-11-06 02:30:00,
2013-11-05 20:40:00,37.5,35.4,29.93,North,5,4.0,5.0,92,0.00,,,0.90,0,Wunderground v.1.15,2013-11-06 02:40:00,
2013-11-05 20:50:00,37.3,35.2,29.92,North,350,6.0,12.0,92,0.00,,,0.90,0,Wunderground v.1.15,2013-11-06 02:50:00,
2013-11-05 21:00:00,37.2,35.1,29.92,NNE,12,6.0,7.0,92,0.00,,,0.90,0,Wunderground v.1.15,2013-11-06 03:00:00,
2013-11-05 21:10:00,37.2,35.1,29.94,NW,318,4.0,4.0,92,0.00,,,0.90,0,Wunderground v.1.15,2013-11-06 03:10:00,
2013-11-05 21:20:00,37.0,34.9,29.95,North,349,3.0,3.0,92,0.00,,,0.90,0,Wunderground v.1.15,2013-11-06 03:20:00,
2013-11-05 21:30:00,36.8,34.7,29.95,NNW,338,4.0,4.0,92,0.00,,,0.90,0,Wunderground v.1.15,2013-11-06 03:30:00,
2013-11-05 21:40:00,36.2,33.8,29.96,NW,318,6.0,9.0,91,0.00,,,0.90,0,Wunderground v.1.15,2013-11-06 03:40:00,
2013-11-05 21:50:00,35.9,33.5,29.99,NNW,337,6.0,6.0,91,0.00,,,0.90,0,Wunderground v.1.15,2013-11-06 03:50:00,
2013-11-05 22:00:00,35.9,33.5,29.99,NNW,339,6.0,6.0,91,0.00,,,0.90,0,Wunderground v.1.15,2013-11-06 04:00:00,
2013-11-05 22:10:00,35.6,33.2,30.00,NNW,347,5.0,13.0,91,0.00,,,0.90,0,Wunderground v.1.15,2013-11-06 04:10:00,
2013-11-05 22:20:00,35.5,33.1,30.00,NNW,335,7.0,23.0,91,0.00,,,0.90,0,Wunderground v.1.15,2013-11-06 04:20:00,
2013-11-05 22:30:00,35.5,33.1,30.00,NNW,329,9.0,9.0,91,0.00,,,0.90,0,Wunderground v.1.15,2013-11-06 04:30:00,
2013-11-05 22:40:00,35.5,33.1,29.99,NNW,328,9.0,11.0,91,0.00,,,0.90,0,Wunderground v.1.15,2013-11-06 04:40:00,
2013-11-05 22:50:00,35.5,33.1,29.98,North,355,8.0,12.0,91,0.00,,,0.90,0,Wunderground v.1.15,2013-11-06 04:50:00,
2013-11-05 23:00:00,35.5,33.1,29.98,NNW,327,8.0,15.0,91,0.00,,,0.90,0,Wunderground v.1.15,2013-11-06 05:00:00,
2013-11-05 23:10:00,35.5,33.1,30.00,NNW,336,8.0,8.0,91,0.00,,,0.00,0,Wunderground v.1.15,2013-11-06 05:10:00,
2013-11-05 23:20:00,35.3,32.9,29.99,NNW,347,10.0,11.0,91,0.00,,,0.00,0,Wunderground v.1.15,2013-11-06 05:20:00,
2013-11-05 23:30:00,35.5,33.9,29.99,North,355,8.0,17.0,94,0.00,,,0.00,0,Wunderground v.1.15,2013-11-06 05:30:00,
2013-11-05 23:40:00,35.5,32.9,30.01,NW,304,7.0,13.0,90,0.00,,,0.00,0,Wunderground v.1.15,2013-11-06 05:40:00,
2013-11-05 23:50:00,35.6,33.0,30.03,NNW,341,8.0,8.0,90,0.00,,,0.00,0,Wunderground v.1.15,2013-11-06 05:50:00,